sensor_id;sensor_type;location;lat;lon;timestamp;P1;durP1;ratioP1;P2;durP2;ratioP2
43706;SDS011;61348;53.392;-6.248;2022-12-24T00:00:23;7.28;;;2.55;;
43706;SDS011;61348;53.392;-6.248;2022-12-24T00:02:50;4.93;;;1.52;;
43706;SDS011;61348;53.392;-6.248;2022-12-24T00:05:17;6.65;;;1.58;;
43706;SDS011;61348;53.392;-6.248;2022-12-24T00:07:44;4.03;;;1.40;;
43706;SDS011;61348;53.392;-6.248;2022-12-24T00:10:10;7.43;;;1.65;;
43706;SDS011;61348;53.392;-6.248;2022-12-24T00:12:37;8.23;;;1.50;;
43706;SDS011;61348;53.392;-6.248;2022-12-24T00:15:04;6.93;;;2.38;;
43706;SDS011;61348;53.392;-6.248;2022-12-24T00:17:33;2.85;;;1.27;;
43706;SDS011;61348;53.392;-6.248;2022-12-24T00:20:00;6.13;;;1.80;;
43706;SDS011;61348;53.392;-6.248;2022-12-24T00:22:26;7.07;;;1.42;;
43706;SDS011;61348;53.392;-6.248;2022-12-24T00:24:53;6.28;;;1.58;;
43706;SDS011;61348;53.392;-6.248;2022-12-24T00:31:07;7.32;;;2.00;;
43706;SDS011;61348;53.392;-6.248;2022-12-24T00:43:55;6.47;;;1.35;;
43706;SDS011;61348;53.392;-6.248;2022-12-24T00:46:23;6.88;;;2.50;;
43706;SDS011;61348;53.392;-6.248;2022-12-24T00:48:50;6.80;;;3.35;;
43706;SDS011;61348;53.392;-6.248;2022-12-24T00:51:18;5.43;;;1.70;;
43706;SDS011;61348;53.392;-6.248;2022-12-24T00:53:46;7.55;;;1.63;;
43706;SDS011;61348;53.392;-6.248;2022-12-24T01:02:57;5.55;;;2.15;;
43706;SDS011;61348;53.392;-6.248;2022-12-24T01:05:24;7.03;;;1.27;;
43706;SDS011;61348;53.392;-6.248;2022-12-24T01:12:03;6.90;;;1.17;;
43706;SDS011;61348;53.392;-6.248;2022-12-24T01:14:50;9.57;;;2.25;;
43706;SDS011;61348;53.392;-6.248;2022-12-24T01:21:38;2.40;;;1.30;;
43706;SDS011;61348;53.392;-6.248;2022-12-24T01:42:19;4.10;;;1.33;;
43706;SDS011;61348;53.392;-6.248;2022-12-24T01:51:00;5.32;;;1.33;;
43706;SDS011;61348;53.392;-6.248;2022-12-24T01:53:42;6.57;;;1.35;;
43706;SDS011;61348;53.392;-6.248;2022-12-24T01:56:13;6.85;;;1.90;;
43706;SDS011;61348;53.392;-6.248;2022-12-24T01:58:42;11.52;;;1.73;;
43706;SDS011;61348;53.392;-6.248;2022-12-24T02:01:13;10.45;;;2.22;;
43706;SDS011;61348;53.392;-6.248;2022-12-24T02:03:40;8.77;;;1.38;;
43706;SDS011;61348;53.392;-6.248;2022-12-24T02:06:07;5.28;;;1.75;;
43706;SDS011;61348;53.392;-6.248;2022-12-24T02:08:38;8.15;;;1.65;;
43706;SDS011;61348;53.392;-6.248;2022-12-24T02:11:23;8.25;;;3.50;;
43706;SDS011;61348;53.392;-6.248;2022-12-24T02:13:51;5.18;;;1.77;;
43706;SDS011;61348;53.392;-6.248;2022-12-24T02:35:44;4.65;;;1.40;;
43706;SDS011;61348;53.392;-6.248;2022-12-24T02:51:04;7.10;;;1.65;;
43706;SDS011;61348;53.392;-6.248;2022-12-24T02:53:52;5.03;;;1.58;;
43706;SDS011;61348;53.392;-6.248;2022-12-24T04:58:45;24.98;;;3.90;;
43706;SDS011;61348;53.392;-6.248;2022-12-24T05:01:32;19.30;;;3.67;;
43706;SDS011;61348;53.392;-6.248;2022-12-24T05:03:59;21.77;;;3.85;;
43706;SDS011;61348;53.392;-6.248;2022-12-24T05:06:30;25.80;;;3.60;;
43706;SDS011;61348;53.392;-6.248;2022-12-24T05:08:57;22.30;;;3.00;;
43706;SDS011;61348;53.392;-6.248;2022-12-24T05:11:25;13.70;;;4.72;;
43706;SDS011;61348;53.392;-6.248;2022-12-24T05:13:51;15.60;;;3.80;;
43706;SDS011;61348;53.392;-6.248;2022-12-24T05:16:19;13.98;;;4.00;;
43706;SDS011;61348;53.392;-6.248;2022-12-24T05:18:47;21.42;;;3.90;;
43706;SDS011;61348;53.392;-6.248;2022-12-24T05:21:15;17.65;;;3.20;;
43706;SDS011;61348;53.392;-6.248;2022-12-24T05:23:44;19.33;;;3.08;;
43706;SDS011;61348;53.392;-6.248;2022-12-24T05:26:35;17.65;;;3.85;;
43706;SDS011;61348;53.392;-6.248;2022-12-24T05:29:13;23.65;;;5.70;;
43706;SDS011;61348;53.392;-6.248;2022-12-24T05:31:41;17.27;;;3.08;;
43706;SDS011;61348;53.392;-6.248;2022-12-24T05:34:09;22.65;;;3.38;;
43706;SDS011;61348;53.392;-6.248;2022-12-24T05:36:37;17.35;;;4.05;;
43706;SDS011;61348;53.392;-6.248;2022-12-24T05:39:04;18.88;;;3.10;;
43706;SDS011;61348;53.392;-6.248;2022-12-24T05:45:38;22.75;;;5.82;;
43706;SDS011;61348;53.392;-6.248;2022-12-24T05:48:05;31.48;;;6.72;;
43706;SDS011;61348;53.392;-6.248;2022-12-24T05:50:34;21.60;;;3.92;;
43706;SDS011;61348;53.392;-6.248;2022-12-24T05:53:01;24.73;;;4.80;;
43706;SDS011;61348;53.392;-6.248;2022-12-24T05:55:28;21.35;;;4.13;;
43706;SDS011;61348;53.392;-6.248;2022-12-24T05:57:54;13.95;;;3.55;;
43706;SDS011;61348;53.392;-6.248;2022-12-24T06:00:21;17.90;;;3.30;;
43706;SDS011;61348;53.392;-6.248;2022-12-24T06:02:49;18.10;;;3.45;;
43706;SDS011;61348;53.392;-6.248;2022-12-24T06:05:16;20.55;;;4.07;;
43706;SDS011;61348;53.392;-6.248;2022-12-24T06:07:44;35.70;;;5.85;;
43706;SDS011;61348;53.392;-6.248;2022-12-24T06:10:10;26.00;;;5.22;;
43706;SDS011;61348;53.392;-6.248;2022-12-24T06:12:37;16.33;;;4.10;;
43706;SDS011;61348;53.392;-6.248;2022-12-24T06:15:04;19.63;;;3.42;;
43706;SDS011;61348;53.392;-6.248;2022-12-24T06:17:31;20.83;;;3.25;;
43706;SDS011;61348;53.392;-6.248;2022-12-24T06:19:58;27.30;;;4.00;;
43706;SDS011;61348;53.392;-6.248;2022-12-24T06:22:25;15.50;;;3.05;;
43706;SDS011;61348;53.392;-6.248;2022-12-24T06:24:52;21.23;;;4.60;;
43706;SDS011;61348;53.392;-6.248;2022-12-24T06:27:18;10.95;;;2.72;;
43706;SDS011;61348;53.392;-6.248;2022-12-24T06:29:45;19.73;;;3.90;;
43706;SDS011;61348;53.392;-6.248;2022-12-24T06:32:12;24.00;;;3.03;;
43706;SDS011;61348;53.392;-6.248;2022-12-24T06:34:38;14.48;;;3.38;;
43706;SDS011;61348;53.392;-6.248;2022-12-24T06:37:05;21.17;;;3.22;;
43706;SDS011;61348;53.392;-6.248;2022-12-24T06:39:32;24.42;;;4.07;;
43706;SDS011;61348;53.392;-6.248;2022-12-24T06:41:59;30.73;;;4.55;;
43706;SDS011;61348;53.392;-6.248;2022-12-24T06:44:26;18.92;;;3.58;;
43706;SDS011;61348;53.392;-6.248;2022-12-24T06:46:52;19.58;;;3.53;;
43706;SDS011;61348;53.392;-6.248;2022-12-24T06:49:19;16.73;;;3.47;;
43706;SDS011;61348;53.392;-6.248;2022-12-24T06:51:46;18.23;;;3.30;;
43706;SDS011;61348;53.392;-6.248;2022-12-24T06:54:13;14.43;;;2.95;;
43706;SDS011;61348;53.392;-6.248;2022-12-24T06:56:39;16.33;;;3.25;;
43706;SDS011;61348;53.392;-6.248;2022-12-24T06:59:06;20.40;;;3.60;;
43706;SDS011;61348;53.392;-6.248;2022-12-24T07:01:33;13.32;;;2.75;;
43706;SDS011;61348;53.392;-6.248;2022-12-24T07:03:59;22.95;;;2.92;;
43706;SDS011;61348;53.392;-6.248;2022-12-24T07:06:46;14.57;;;2.90;;
43706;SDS011;61348;53.392;-6.248;2022-12-24T07:09:33;15.95;;;3.47;;
43706;SDS011;61348;53.392;-6.248;2022-12-24T07:12:20;19.25;;;3.67;;
43706;SDS011;61348;53.392;-6.248;2022-12-24T07:15:08;13.93;;;4.15;;
43706;SDS011;61348;53.392;-6.248;2022-12-24T07:17:56;17.30;;;3.90;;
43706;SDS011;61348;53.392;-6.248;2022-12-24T07:20:43;17.15;;;2.97;;
43706;SDS011;61348;53.392;-6.248;2022-12-24T07:23:30;15.35;;;3.50;;
43706;SDS011;61348;53.392;-6.248;2022-12-24T07:26:17;13.15;;;2.50;;
43706;SDS011;61348;53.392;-6.248;2022-12-24T07:29:04;21.33;;;3.20;;
43706;SDS011;61348;53.392;-6.248;2022-12-24T07:31:51;12.77;;;3.03;;
43706;SDS011;61348;53.392;-6.248;2022-12-24T07:34:38;16.27;;;3.83;;
43706;SDS011;61348;53.392;-6.248;2022-12-24T07:37:25;14.73;;;3.33;;
43706;SDS011;61348;53.392;-6.248;2022-12-24T07:40:12;19.25;;;4.40;;
43706;SDS011;61348;53.392;-6.248;2022-12-24T07:42:59;17.13;;;3.20;;
43706;SDS011;61348;53.392;-6.248;2022-12-24T07:49:47;18.80;;;2.90;;
43706;SDS011;61348;53.392;-6.248;2022-12-24T07:52:34;14.88;;;3.25;;
43706;SDS011;61348;53.392;-6.248;2022-12-24T07:55:21;10.27;;;2.45;;
43706;SDS011;61348;53.392;-6.248;2022-12-24T07:58:06;15.32;;;2.72;;
43706;SDS011;61348;53.392;-6.248;2022-12-24T08:00:33;28.30;;;3.72;;
43706;SDS011;61348;53.392;-6.248;2022-12-24T08:03:00;15.98;;;3.53;;
43706;SDS011;61348;53.392;-6.248;2022-12-24T08:05:26;19.75;;;3.47;;
43706;SDS011;61348;53.392;-6.248;2022-12-24T08:07:53;11.80;;;2.67;;
43706;SDS011;61348;53.392;-6.248;2022-12-24T08:10:20;23.08;;;4.38;;
43706;SDS011;61348;53.392;-6.248;2022-12-24T08:12:47;21.30;;;3.03;;
43706;SDS011;61348;53.392;-6.248;2022-12-24T08:15:14;17.40;;;2.72;;
43706;SDS011;61348;53.392;-6.248;2022-12-24T08:17:41;17.13;;;3.58;;
43706;SDS011;61348;53.392;-6.248;2022-12-24T08:20:28;15.48;;;3.08;;
43706;SDS011;61348;53.392;-6.248;2022-12-24T08:23:15;12.85;;;3.45;;
43706;SDS011;61348;53.392;-6.248;2022-12-24T08:33:59;16.90;;;2.72;;
43706;SDS011;61348;53.392;-6.248;2022-12-24T08:43:35;13.23;;;2.78;;
43706;SDS011;61348;53.392;-6.248;2022-12-24T08:46:05;11.60;;;2.90;;
43706;SDS011;61348;53.392;-6.248;2022-12-24T08:56:13;9.85;;;1.30;;
43706;SDS011;61348;53.392;-6.248;2022-12-24T08:58:40;7.13;;;1.35;;
43706;SDS011;61348;53.392;-6.248;2022-12-24T09:08:37;12.73;;;2.83;;
43706;SDS011;61348;53.392;-6.248;2022-12-24T09:15:36;5.38;;;1.27;;
43706;SDS011;61348;53.392;-6.248;2022-12-24T09:26:04;8.50;;;2.50;;
43706;SDS011;61348;53.392;-6.248;2022-12-24T09:28:32;5.93;;;1.88;;
43706;SDS011;61348;53.392;-6.248;2022-12-24T09:50:45;9.20;;;3.03;;
43706;SDS011;61348;53.392;-6.248;2022-12-24T09:56:39;12.85;;;2.03;;
43706;SDS011;61348;53.392;-6.248;2022-12-24T09:59:13;12.48;;;2.25;;
43706;SDS011;61348;53.392;-6.248;2022-12-24T10:01:42;14.40;;;2.72;;
43706;SDS011;61348;53.392;-6.248;2022-12-24T10:04:13;9.50;;;3.35;;
43706;SDS011;61348;53.392;-6.248;2022-12-24T10:06:50;12.30;;;2.38;;
43706;SDS011;61348;53.392;-6.248;2022-12-24T10:12:24;11.25;;;2.08;;
43706;SDS011;61348;53.392;-6.248;2022-12-24T10:30:06;8.98;;;1.88;;
43706;SDS011;61348;53.392;-6.248;2022-12-24T10:36:25;10.57;;;1.83;;
43706;SDS011;61348;53.392;-6.248;2022-12-24T10:39:00;11.98;;;2.63;;
43706;SDS011;61348;53.392;-6.248;2022-12-24T10:41:34;16.48;;;3.15;;
43706;SDS011;61348;53.392;-6.248;2022-12-24T10:44:03;24.80;;;5.15;;
43706;SDS011;61348;53.392;-6.248;2022-12-24T10:56:29;23.80;;;4.95;;
43706;SDS011;61348;53.392;-6.248;2022-12-24T10:58:55;16.85;;;2.67;;
43706;SDS011;61348;53.392;-6.248;2022-12-24T11:10:41;19.33;;;4.25;;
43706;SDS011;61348;53.392;-6.248;2022-12-24T11:20:57;29.00;;;5.47;;
43706;SDS011;61348;53.392;-6.248;2022-12-24T11:26:23;15.30;;;3.92;;
43706;SDS011;61348;53.392;-6.248;2022-12-24T11:31:46;25.42;;;3.50;;
43706;SDS011;61348;53.392;-6.248;2022-12-24T11:36:49;29.85;;;6.53;;
43706;SDS011;61348;53.392;-6.248;2022-12-24T11:39:20;18.02;;;4.47;;
43706;SDS011;61348;53.392;-6.248;2022-12-24T11:41:49;22.75;;;4.55;;
43706;SDS011;61348;53.392;-6.248;2022-12-24T11:54:45;21.08;;;3.50;;
43706;SDS011;61348;53.392;-6.248;2022-12-24T11:57:49;15.93;;;3.63;;
43706;SDS011;61348;53.392;-6.248;2022-12-24T12:00:28;27.33;;;5.32;;
43706;SDS011;61348;53.392;-6.248;2022-12-24T12:02:56;20.73;;;4.53;;
43706;SDS011;61348;53.392;-6.248;2022-12-24T12:05:39;20.83;;;3.97;;
43706;SDS011;61348;53.392;-6.248;2022-12-24T12:08:25;26.65;;;5.88;;
43706;SDS011;61348;53.392;-6.248;2022-12-24T12:17:33;26.35;;;4.53;;
43706;SDS011;61348;53.392;-6.248;2022-12-24T12:23:37;15.00;;;3.85;;
43706;SDS011;61348;53.392;-6.248;2022-12-24T12:26:17;24.40;;;5.50;;
43706;SDS011;61348;53.392;-6.248;2022-12-24T12:35:44;23.13;;;5.65;;
43706;SDS011;61348;53.392;-6.248;2022-12-24T13:14:42;28.10;;;5.50;;
43706;SDS011;61348;53.392;-6.248;2022-12-24T13:22:48;5.57;;;1.85;;
43706;SDS011;61348;53.392;-6.248;2022-12-24T13:25:38;2.80;;;1.63;;
43706;SDS011;61348;53.392;-6.248;2022-12-24T13:31:27;4.57;;;1.77;;
43706;SDS011;61348;53.392;-6.248;2022-12-24T13:33:59;9.90;;;3.58;;
43706;SDS011;61348;53.392;-6.248;2022-12-24T13:36:58;6.07;;;2.67;;
43706;SDS011;61348;53.392;-6.248;2022-12-24T13:39:27;1.13;;;0.80;;
43706;SDS011;61348;53.392;-6.248;2022-12-24T13:41:54;3.05;;;2.08;;
43706;SDS011;61348;53.392;-6.248;2022-12-24T13:44:33;2.60;;;1.30;;
43706;SDS011;61348;53.392;-6.248;2022-12-24T13:47:20;4.60;;;1.05;;
43706;SDS011;61348;53.392;-6.248;2022-12-24T13:49:57;1.88;;;1.00;;
43706;SDS011;61348;53.392;-6.248;2022-12-24T13:52:49;4.20;;;1.00;;
43706;SDS011;61348;53.392;-6.248;2022-12-24T13:55:18;4.55;;;1.27;;
43706;SDS011;61348;53.392;-6.248;2022-12-24T13:57:58;4.28;;;1.55;;
43706;SDS011;61348;53.392;-6.248;2022-12-24T14:03:27;4.05;;;1.95;;
43706;SDS011;61348;53.392;-6.248;2022-12-24T14:06:03;5.20;;;2.65;;
43706;SDS011;61348;53.392;-6.248;2022-12-24T14:08:43;10.70;;;3.22;;
43706;SDS011;61348;53.392;-6.248;2022-12-24T14:17:05;6.50;;;2.17;;
43706;SDS011;61348;53.392;-6.248;2022-12-24T14:19:40;8.45;;;3.10;;
43706;SDS011;61348;53.392;-6.248;2022-12-24T14:24:39;6.47;;;2.05;;
43706;SDS011;61348;53.392;-6.248;2022-12-24T14:27:13;5.30;;;2.10;;
43706;SDS011;61348;53.392;-6.248;2022-12-24T14:30:00;2.80;;;2.05;;
43706;SDS011;61348;53.392;-6.248;2022-12-24T14:32:43;5.18;;;2.22;;
43706;SDS011;61348;53.392;-6.248;2022-12-24T14:37:51;6.55;;;2.10;;
43706;SDS011;61348;53.392;-6.248;2022-12-24T14:40:26;6.03;;;2.97;;
43706;SDS011;61348;53.392;-6.248;2022-12-24T14:46:13;5.75;;;2.95;;
43706;SDS011;61348;53.392;-6.248;2022-12-24T14:48:57;15.85;;;7.18;;
43706;SDS011;61348;53.392;-6.248;2022-12-24T14:51:42;8.68;;;4.28;;
43706;SDS011;61348;53.392;-6.248;2022-12-24T14:59:18;7.70;;;3.90;;
43706;SDS011;61348;53.392;-6.248;2022-12-24T15:01:46;9.13;;;2.10;;
43706;SDS011;61348;53.392;-6.248;2022-12-24T15:04:16;5.75;;;1.95;;
43706;SDS011;61348;53.392;-6.248;2022-12-24T15:06:48;7.05;;;1.88;;
43706;SDS011;61348;53.392;-6.248;2022-12-24T15:09:19;5.03;;;3.03;;
43706;SDS011;61348;53.392;-6.248;2022-12-24T15:11:49;4.80;;;2.50;;
43706;SDS011;61348;53.392;-6.248;2022-12-24T15:14:19;4.20;;;2.50;;
43706;SDS011;61348;53.392;-6.248;2022-12-24T15:16:53;15.18;;;8.98;;
43706;SDS011;61348;53.392;-6.248;2022-12-24T15:19:21;32.97;;;16.63;;
43706;SDS011;61348;53.392;-6.248;2022-12-24T15:21:53;30.83;;;14.40;;
43706;SDS011;61348;53.392;-6.248;2022-12-24T15:27:50;40.42;;;19.38;;
43706;SDS011;61348;53.392;-6.248;2022-12-24T15:30:19;25.23;;;14.40;;
43706;SDS011;61348;53.392;-6.248;2022-12-24T15:32:52;20.70;;;11.57;;
43706;SDS011;61348;53.392;-6.248;2022-12-24T15:35:29;17.52;;;8.68;;
43706;SDS011;61348;53.392;-6.248;2022-12-24T15:37:59;7.93;;;4.40;;
43706;SDS011;61348;53.392;-6.248;2022-12-24T15:40:28;7.32;;;3.35;;
43706;SDS011;61348;53.392;-6.248;2022-12-24T15:42:55;11.05;;;5.93;;
43706;SDS011;61348;53.392;-6.248;2022-12-24T15:45:23;7.55;;;4.32;;
43706;SDS011;61348;53.392;-6.248;2022-12-24T15:47:54;14.43;;;4.90;;
43706;SDS011;61348;53.392;-6.248;2022-12-24T15:50:29;8.82;;;3.88;;
43706;SDS011;61348;53.392;-6.248;2022-12-24T15:53:02;10.25;;;3.17;;
43706;SDS011;61348;53.392;-6.248;2022-12-24T15:56:03;7.18;;;3.35;;
43706;SDS011;61348;53.392;-6.248;2022-12-24T15:58:33;12.00;;;4.03;;
43706;SDS011;61348;53.392;-6.248;2022-12-24T16:03:36;9.40;;;2.67;;
43706;SDS011;61348;53.392;-6.248;2022-12-24T16:06:07;6.30;;;2.05;;
43706;SDS011;61348;53.392;-6.248;2022-12-24T16:08:37;8.07;;;2.83;;
43706;SDS011;61348;53.392;-6.248;2022-12-24T16:16:30;14.13;;;5.35;;
43706;SDS011;61348;53.392;-6.248;2022-12-24T16:22:13;7.10;;;2.40;;
43706;SDS011;61348;53.392;-6.248;2022-12-24T16:27:53;4.45;;;1.95;;
43706;SDS011;61348;53.392;-6.248;2022-12-24T16:30:25;2.47;;;1.95;;
43706;SDS011;61348;53.392;-6.248;2022-12-24T16:32:52;2.90;;;1.90;;
43706;SDS011;61348;53.392;-6.248;2022-12-24T16:39:11;6.00;;;2.47;;
43706;SDS011;61348;53.392;-6.248;2022-12-24T16:41:52;5.60;;;2.63;;
43706;SDS011;61348;53.392;-6.248;2022-12-24T16:44:51;8.95;;;3.25;;
43706;SDS011;61348;53.392;-6.248;2022-12-24T16:47:20;4.95;;;3.38;;
43706;SDS011;61348;53.392;-6.248;2022-12-24T16:50:12;7.32;;;3.85;;
43706;SDS011;61348;53.392;-6.248;2022-12-24T16:52:41;12.18;;;3.25;;
43706;SDS011;61348;53.392;-6.248;2022-12-24T16:55:08;10.20;;;4.07;;
43706;SDS011;61348;53.392;-6.248;2022-12-24T16:57:39;5.53;;;3.63;;
43706;SDS011;61348;53.392;-6.248;2022-12-24T17:00:08;5.40;;;2.40;;
43706;SDS011;61348;53.392;-6.248;2022-12-24T17:02:41;5.18;;;3.28;;
43706;SDS011;61348;53.392;-6.248;2022-12-24T17:05:08;8.07;;;4.90;;
43706;SDS011;61348;53.392;-6.248;2022-12-24T17:10:18;6.88;;;4.20;;
43706;SDS011;61348;53.392;-6.248;2022-12-24T17:12:45;9.45;;;5.75;;
43706;SDS011;61348;53.392;-6.248;2022-12-24T17:15:12;5.90;;;4.18;;
43706;SDS011;61348;53.392;-6.248;2022-12-24T17:17:44;13.07;;;4.78;;
43706;SDS011;61348;53.392;-6.248;2022-12-24T17:20:11;3.78;;;2.13;;
43706;SDS011;61348;53.392;-6.248;2022-12-24T17:22:40;7.00;;;2.97;;
43706;SDS011;61348;53.392;-6.248;2022-12-24T17:25:08;7.85;;;3.72;;
43706;SDS011;61348;53.392;-6.248;2022-12-24T17:27:40;7.13;;;2.40;;
43706;SDS011;61348;53.392;-6.248;2022-12-24T17:30:06;6.38;;;2.83;;
43706;SDS011;61348;53.392;-6.248;2022-12-24T17:32:34;3.78;;;2.13;;
43706;SDS011;61348;53.392;-6.248;2022-12-24T17:35:02;3.35;;;2.10;;
43706;SDS011;61348;53.392;-6.248;2022-12-24T17:37:29;8.02;;;3.40;;
43706;SDS011;61348;53.392;-6.248;2022-12-24T17:39:56;5.47;;;2.97;;
43706;SDS011;61348;53.392;-6.248;2022-12-24T17:42:41;4.72;;;3.33;;
43706;SDS011;61348;53.392;-6.248;2022-12-24T17:45:08;6.97;;;3.28;;
43706;SDS011;61348;53.392;-6.248;2022-12-24T17:47:35;3.17;;;2.40;;
43706;SDS011;61348;53.392;-6.248;2022-12-24T17:50:02;5.22;;;3.75;;
43706;SDS011;61348;53.392;-6.248;2022-12-24T17:52:29;5.45;;;2.83;;
43706;SDS011;61348;53.392;-6.248;2022-12-24T17:54:58;3.88;;;1.90;;
43706;SDS011;61348;53.392;-6.248;2022-12-24T17:57:25;8.07;;;2.42;;
43706;SDS011;61348;53.392;-6.248;2022-12-24T17:59:53;3.15;;;2.15;;
43706;SDS011;61348;53.392;-6.248;2022-12-24T18:02:19;3.60;;;1.88;;
43706;SDS011;61348;53.392;-6.248;2022-12-24T18:04:47;2.10;;;1.35;;
43706;SDS011;61348;53.392;-6.248;2022-12-24T18:07:13;3.28;;;1.70;;
43706;SDS011;61348;53.392;-6.248;2022-12-24T18:09:44;3.70;;;1.65;;
43706;SDS011;61348;53.392;-6.248;2022-12-24T18:12:12;3.03;;;1.60;;
43706;SDS011;61348;53.392;-6.248;2022-12-24T18:14:39;9.23;;;3.42;;
43706;SDS011;61348;53.392;-6.248;2022-12-24T18:17:06;4.80;;;2.47;;
43706;SDS011;61348;53.392;-6.248;2022-12-24T18:19:32;1.98;;;1.70;;
43706;SDS011;61348;53.392;-6.248;2022-12-24T18:22:00;7.13;;;2.22;;
43706;SDS011;61348;53.392;-6.248;2022-12-24T18:27:40;7.20;;;2.60;;
43706;SDS011;61348;53.392;-6.248;2022-12-24T18:30:07;5.05;;;2.67;;
43706;SDS011;61348;53.392;-6.248;2022-12-24T18:32:35;9.60;;;3.88;;
43706;SDS011;61348;53.392;-6.248;2022-12-24T18:35:18;2.72;;;2.28;;
43706;SDS011;61348;53.392;-6.248;2022-12-24T18:37:45;5.85;;;2.40;;
43706;SDS011;61348;53.392;-6.248;2022-12-24T18:40:12;4.55;;;1.67;;
43706;SDS011;61348;53.392;-6.248;2022-12-24T18:42:39;5.93;;;1.92;;
43706;SDS011;61348;53.392;-6.248;2022-12-24T18:45:07;4.80;;;2.25;;
43706;SDS011;61348;53.392;-6.248;2022-12-24T18:47:34;6.75;;;3.03;;
43706;SDS011;61348;53.392;-6.248;2022-12-24T19:00:34;3.70;;;1.67;;
43706;SDS011;61348;53.392;-6.248;2022-12-24T19:11:10;4.70;;;2.67;;
43706;SDS011;61348;53.392;-6.248;2022-12-24T19:13:38;5.18;;;3.65;;
43706;SDS011;61348;53.392;-6.248;2022-12-24T19:19:05;6.65;;;3.33;;
43706;SDS011;61348;53.392;-6.248;2022-12-24T19:31:30;10.20;;;5.63;;
43706;SDS011;61348;53.392;-6.248;2022-12-24T19:42:09;8.65;;;3.53;;
43706;SDS011;61348;53.392;-6.248;2022-12-24T19:44:56;13.05;;;7.25;;
43706;SDS011;61348;53.392;-6.248;2022-12-24T19:47:43;14.80;;;6.68;;
43706;SDS011;61348;53.392;-6.248;2022-12-24T19:50:10;10.00;;;6.15;;
43706;SDS011;61348;53.392;-6.248;2022-12-24T19:52:44;12.60;;;5.60;;
43706;SDS011;61348;53.392;-6.248;2022-12-24T19:55:10;24.60;;;10.65;;
43706;SDS011;61348;53.392;-6.248;2022-12-24T20:01:19;15.07;;;6.10;;
43706;SDS011;61348;53.392;-6.248;2022-12-24T20:04:08;11.82;;;6.93;;
43706;SDS011;61348;53.392;-6.248;2022-12-24T20:06:56;12.35;;;5.50;;
43706;SDS011;61348;53.392;-6.248;2022-12-24T20:09:46;14.10;;;6.32;;
43706;SDS011;61348;53.392;-6.248;2022-12-24T20:12:13;16.13;;;6.68;;
43706;SDS011;61348;53.392;-6.248;2022-12-24T20:14:39;9.98;;;4.03;;
43706;SDS011;61348;53.392;-6.248;2022-12-24T20:17:09;18.25;;;6.53;;
43706;SDS011;61348;53.392;-6.248;2022-12-24T20:19:36;13.32;;;5.82;;
43706;SDS011;61348;53.392;-6.248;2022-12-24T20:22:03;14.48;;;6.70;;
43706;SDS011;61348;53.392;-6.248;2022-12-24T20:28:20;16.33;;;6.95;;
43706;SDS011;61348;53.392;-6.248;2022-12-24T20:48:10;11.05;;;3.97;;
43706;SDS011;61348;53.392;-6.248;2022-12-24T20:50:39;13.05;;;6.40;;
43706;SDS011;61348;53.392;-6.248;2022-12-24T20:53:06;12.57;;;5.72;;
43706;SDS011;61348;53.392;-6.248;2022-12-24T20:59:23;18.10;;;5.70;;
43706;SDS011;61348;53.392;-6.248;2022-12-24T21:01:51;19.25;;;6.60;;
43706;SDS011;61348;53.392;-6.248;2022-12-24T21:12:06;20.85;;;5.45;;
43706;SDS011;61348;53.392;-6.248;2022-12-24T21:14:54;17.83;;;5.03;;
43706;SDS011;61348;53.392;-6.248;2022-12-24T21:17:41;12.57;;;4.68;;
43706;SDS011;61348;53.392;-6.248;2022-12-24T21:20:28;17.17;;;4.95;;
43706;SDS011;61348;53.392;-6.248;2022-12-24T21:23:16;12.20;;;5.13;;
43706;SDS011;61348;53.392;-6.248;2022-12-24T21:26:03;10.40;;;4.90;;
43706;SDS011;61348;53.392;-6.248;2022-12-24T21:28:51;13.68;;;6.05;;
43706;SDS011;61348;53.392;-6.248;2022-12-24T21:42:35;22.55;;;10.10;;
43706;SDS011;61348;53.392;-6.248;2022-12-24T21:45:03;22.38;;;7.07;;
43706;SDS011;61348;53.392;-6.248;2022-12-24T21:47:31;16.90;;;4.43;;
43706;SDS011;61348;53.392;-6.248;2022-12-24T21:49:59;7.80;;;3.40;;
43706;SDS011;61348;53.392;-6.248;2022-12-24T21:52:45;11.93;;;4.13;;
43706;SDS011;61348;53.392;-6.248;2022-12-24T21:55:11;8.88;;;3.28;;
43706;SDS011;61348;53.392;-6.248;2022-12-24T21:57:38;9.95;;;3.95;;
43706;SDS011;61348;53.392;-6.248;2022-12-24T22:00:20;14.43;;;3.70;;
43706;SDS011;61348;53.392;-6.248;2022-12-24T22:02:50;8.85;;;3.85;;
43706;SDS011;61348;53.392;-6.248;2022-12-24T22:09:03;15.10;;;4.75;;
43706;SDS011;61348;53.392;-6.248;2022-12-24T22:11:48;11.93;;;3.67;;
43706;SDS011;61348;53.392;-6.248;2022-12-24T22:25:51;11.27;;;2.95;;
43706;SDS011;61348;53.392;-6.248;2022-12-24T22:28:18;20.35;;;6.22;;
43706;SDS011;61348;53.392;-6.248;2022-12-24T22:41:59;14.30;;;4.00;;
43706;SDS011;61348;53.392;-6.248;2022-12-24T22:47:51;9.23;;;3.45;;
43706;SDS011;61348;53.392;-6.248;2022-12-24T22:50:18;13.05;;;3.83;;
43706;SDS011;61348;53.392;-6.248;2022-12-24T23:03:35;11.88;;;3.10;;
43706;SDS011;61348;53.392;-6.248;2022-12-24T23:13:51;9.00;;;2.70;;
43706;SDS011;61348;53.392;-6.248;2022-12-24T23:16:37;13.52;;;3.20;;
43706;SDS011;61348;53.392;-6.248;2022-12-24T23:19:24;15.07;;;3.83;;
43706;SDS011;61348;53.392;-6.248;2022-12-24T23:22:11;13.93;;;3.75;;
43706;SDS011;61348;53.392;-6.248;2022-12-24T23:24:58;8.65;;;3.42;;
43706;SDS011;61348;53.392;-6.248;2022-12-24T23:27:45;17.33;;;4.68;;
43706;SDS011;61348;53.392;-6.248;2022-12-24T23:49:22;18.73;;;4.18;;
43706;SDS011;61348;53.392;-6.248;2022-12-24T23:51:49;11.48;;;3.97;;
43706;SDS011;61348;53.392;-6.248;2022-12-24T23:54:16;16.70;;;3.70;;
43706;SDS011;61348;53.392;-6.248;2022-12-24T23:56:43;10.40;;;3.15;;
43706;SDS011;61348;53.392;-6.248;2022-12-24T23:59:09;15.88;;;3.78;;
